Time;durP1;ratioP1;P1;durP2;ratioP2;P2;SDS_P1;SDS_P2;PMS_P1;PMS_P2;Temp;Humidity;BMP_temperature;BMP_pressure;BME280_temperature;BME280_humidity;BME280_pressure;Samples;Min_cycle;Max_cycle;Signal;HPM_P1;HPM_P2
2022/04/22 00:01:30;;;;;;;8.73;5.93;;;3.80;95.90;;;;;;4198082;28;20565;-71
2022/04/22 00:03:30;;;;;;;7.47;5.90;;;3.70;95.90;;;;;;4199112;28;20203;-69
2022/04/22 00:05:31;;;;;;;7.80;5.33;;;3.70;96.40;;;;;;4196168;28;20175;-69
2022/04/22 00:07:32;;;;;;;9.10;5.90;;;3.60;96.70;;;;;;4197647;28;20212;-70
2022/04/22 00:09:33;;;;;;;8.70;6.00;;;3.60;96.70;;;;;;4195207;28;20241;-70
2022/04/22 00:11:33;;;;;;;6.73;5.27;;;3.60;96.90;;;;;;4199050;28;20210;-70
2022/04/22 00:13:34;;;;;;;9.40;6.20;;;3.50;97.20;;;;;;4197958;28;20618;-70
2022/04/22 00:15:35;;;;;;;9.17;6.00;;;3.50;97.40;;;;;;4195963;28;20191;-70
2022/04/22 00:17:35;;;;;;;9.37;6.20;;;3.50;97.50;;;;;;4198405;28;20249;-69
2022/04/22 00:19:36;;;;;;;10.13;5.97;;;3.50;97.40;;;;;;4197702;28;20252;-70
2022/04/22 00:21:37;;;;;;;8.20;5.90;;;3.40;97.70;;;;;;4198157;28;20176;-70
2022/04/22 00:23:37;;;;;;;11.20;6.03;;;3.50;97.60;;;;;;4197507;28;20180;-70
2022/04/22 00:25:38;;;;;;;12.67;5.70;;;3.40;97.80;;;;;;4194549;28;20724;-70
2022/04/22 00:27:39;;;;;;;6.87;5.17;;;3.50;98.00;;;;;;4195141;28;20234;-71
2022/04/22 00:29:40;;;;;;;8.83;5.90;;;3.50;97.80;;;;;;4195398;28;20705;-70
2022/04/22 00:31:41;;;;;;;9.07;5.90;;;3.50;97.50;;;;;;4195371;28;20418;-70
2022/04/22 00:33:44;;;;;;;7.93;5.73;;;3.50;97.70;;;;;;4195489;28;20175;-70
2022/04/22 00:35:45;;;;;;;9.27;6.00;;;3.40;97.50;;;;;;4194652;28;20191;-71
2022/04/22 00:37:47;;;;;;;7.50;5.97;;;3.40;97.80;;;;;;4195180;28;20475;-70
2022/04/22 00:39:48;;;;;;;10.07;5.60;;;3.40;98.00;;;;;;4194793;28;20418;-70
2022/04/22 00:41:48;;;;;;;8.57;6.43;;;3.30;97.50;;;;;;4196135;28;20429;-72
2022/04/22 00:43:50;;;;;;;9.37;6.50;;;3.30;97.80;;;;;;4196041;28;20190;-70
2022/04/22 00:45:53;;;;;;;9.30;5.43;;;3.30;97.90;;;;;;4195430;28;20639;-70
2022/04/22 00:47:54;;;;;;;11.27;6.77;;;3.20;98.20;;;;;;4195922;28;20448;-70
2022/04/22 00:49:56;;;;;;;10.23;6.07;;;3.20;98.30;;;;;;4196115;28;20508;-70
2022/04/22 00:51:56;;;;;;;9.30;5.90;;;3.20;98.50;;;;;;4195660;28;20512;-69
2022/04/22 00:53:57;;;;;;;9.53;6.77;;;3.20;98.70;;;;;;4194471;28;20456;-70
2022/04/22 00:55:58;;;;;;;8.40;6.10;;;3.20;98.90;;;;;;4193855;28;20208;-70
2022/04/22 00:57:59;;;;;;;9.30;6.37;;;3.20;99.00;;;;;;4194577;28;20861;-70
2022/04/22 01:00:01;;;;;;;9.97;5.77;;;3.20;99.10;;;;;;4194368;28;20222;-70
2022/04/22 01:02:01;;;;;;;8.60;5.43;;;3.10;99.20;;;;;;4195577;28;20184;-70
2022/04/22 01:11:00;;;;;;;10.23;6.47;;;3.00;99.70;;;;;;4195611;28;20509;-70
2022/04/22 01:13:01;;;;;;;8.63;6.13;;;3.00;99.60;;;;;;4195231;28;20425;-70
2022/04/22 01:15:02;;;;;;;10.30;6.47;;;3.00;99.90;;;;;;4199925;28;20583;-71
2022/04/22 01:17:04;;;;;;;7.80;6.10;;;3.00;99.90;;;;;;4199454;28;20218;-70
2022/04/22 01:19:04;;;;;;;8.43;6.07;;;3.00;99.90;;;;;;4198784;28;20460;-71
2022/04/22 01:21:05;;;;;;;12.67;6.43;;;3.00;99.90;;;;;;4200384;28;20463;-70
2022/04/22 01:23:06;;;;;;;8.83;5.97;;;3.10;99.90;;;;;;4199982;28;20199;-73
2022/04/22 01:25:07;;;;;;;8.33;6.37;;;3.10;99.90;;;;;;4198422;28;20207;-71
2022/04/22 01:27:09;;;;;;;6.60;5.07;;;3.10;99.90;;;;;;4198212;28;20194;-70
2022/04/22 01:29:12;;;;;;;8.23;5.50;;;3.10;99.90;;;;;;4181214;28;20537;-70
2022/04/22 01:31:12;;;;;;;8.97;6.10;;;3.00;99.70;;;;;;4197385;28;20786;-70
2022/04/22 01:33:13;;;;;;;8.23;5.80;;;3.10;99.60;;;;;;4198623;28;20429;-71
2022/04/22 01:35:14;;;;;;;7.77;6.30;;;3.10;99.50;;;;;;4198297;28;20225;-70
2022/04/22 01:37:14;;;;;;;8.90;6.43;;;3.10;98.90;;;;;;4196754;28;20211;-70
2022/04/22 01:39:15;;;;;;;9.23;6.20;;;3.00;99.20;;;;;;4197413;28;20215;-71
2022/04/22 01:41:15;;;;;;;8.93;6.43;;;2.90;99.40;;;;;;4198813;28;20243;-70
2022/04/22 01:43:17;;;;;;;9.23;6.23;;;3.00;99.80;;;;;;4198333;28;20180;-70
2022/04/22 01:45:18;;;;;;;10.27;6.60;;;3.00;99.70;;;;;;4196488;28;20184;-70
2022/04/22 01:47:19;;;;;;;10.60;6.50;;;2.90;99.60;;;;;;4197229;28;20448;-70
2022/04/22 01:49:20;;;;;;;10.33;6.90;;;2.90;99.80;;;;;;4196379;28;20547;-70
2022/04/22 01:51:21;;;;;;;10.00;6.40;;;2.80;99.90;;;;;;4196618;28;20451;-71
2022/04/22 01:53:22;;;;;;;8.37;6.20;;;2.80;99.90;;;;;;4197892;28;20426;-70
2022/04/22 01:55:23;;;;;;;8.33;6.17;;;2.80;99.90;;;;;;4197210;28;20190;-70
2022/04/22 01:57:24;;;;;;;9.53;5.57;;;2.80;99.90;;;;;;4196389;28;20586;-71
2022/04/22 01:59:24;;;;;;;9.87;6.37;;;2.70;99.90;;;;;;4197853;28;20187;-70
2022/04/22 02:01:25;;;;;;;10.17;6.20;;;2.80;99.90;;;;;;4196603;28;20184;-70
2022/04/22 02:03:26;;;;;;;9.57;5.90;;;2.80;99.90;;;;;;4196307;28;20258;-70
2022/04/22 02:05:26;;;;;;;8.13;5.47;;;2.80;99.90;;;;;;4197024;28;20198;-70
2022/04/22 02:07:27;;;;;;;8.73;6.30;;;2.70;99.90;;;;;;4197716;28;20211;-70
2022/04/22 02:09:28;;;;;;;7.23;5.13;;;2.70;99.90;;;;;;4195722;28;20187;-70
2022/04/22 02:11:29;;;;;;;8.40;6.53;;;2.80;99.90;;;;;;4182613;28;20230;-70
2022/04/22 02:13:32;;;;;;;9.00;6.03;;;2.70;99.90;;;;;;4180925;28;20465;-70
2022/04/22 02:15:32;;;;;;;7.87;5.90;;;2.70;99.90;;;;;;4180213;28;20214;-70
2022/04/22 02:17:33;;;;;;;9.90;6.20;;;2.60;99.90;;;;;;4180813;28;21012;-70
2022/04/22 02:19:34;;;;;;;8.20;5.93;;;2.60;99.90;;;;;;4180713;28;20694;-69
2022/04/22 02:21:34;;;;;;;7.17;5.47;;;2.60;99.90;;;;;;4180388;28;20183;-70
2022/04/22 02:23:37;;;;;;;9.87;5.83;;;2.70;99.90;;;;;;4162864;28;20209;-71
2022/04/22 02:25:38;;;;;;;8.47;5.30;;;2.60;99.90;;;;;;4177473;28;20419;-70
2022/04/22 02:29:57;;;;;;;8.87;5.63;;;2.60;99.90;;;;;;4180482;28;20179;-70
2022/04/22 02:31:58;;;;;;;9.13;6.30;;;2.60;99.90;;;;;;4180413;28;20513;-70
2022/04/22 02:33:58;;;;;;;7.30;5.27;;;2.60;99.90;;;;;;4180484;28;20245;-70
2022/04/22 02:35:59;;;;;;;9.77;6.17;;;2.50;99.90;;;;;;4179592;28;20659;-70
2022/04/22 02:38:00;;;;;;;7.13;5.37;;;2.60;99.90;;;;;;4180452;28;20647;-71
2022/04/22 02:40:01;;;;;;;8.40;6.13;;;2.60;99.90;;;;;;4180253;28;20473;-71
2022/04/22 02:46:40;;;;;;;7.53;5.80;;;2.60;99.90;;;;;;4179451;28;20980;-70
2022/04/22 02:48:41;;;;;;;10.67;5.73;;;2.70;99.90;;;;;;4179970;28;20561;-70
2022/04/22 02:50:41;;;;;;;9.93;6.33;;;2.60;99.90;;;;;;4180108;28;20730;-71
2022/04/22 02:52:42;;;;;;;8.50;5.73;;;2.60;99.90;;;;;;4179815;28;20214;-70
2022/04/22 02:54:44;;;;;;;8.10;5.93;;;2.70;99.90;;;;;;4177096;28;20228;-70
2022/04/22 02:56:45;;;;;;;9.27;6.00;;;2.70;99.90;;;;;;4179727;28;20200;-70
2022/04/22 02:58:46;;;;;;;9.47;5.80;;;2.70;99.90;;;;;;4178503;28;20554;-71
2022/04/22 03:00:47;;;;;;;11.20;6.13;;;2.60;99.90;;;;;;4178679;28;20430;-70
2022/04/22 03:02:48;;;;;;;9.07;5.97;;;2.70;99.90;;;;;;4179870;28;20425;-71
2022/04/22 03:04:48;;;;;;;8.30;5.47;;;2.70;99.90;;;;;;4178918;28;20605;-70
2022/04/22 03:06:49;;;;;;;8.57;6.00;;;2.70;99.90;;;;;;4180052;28;20219;-70
2022/04/22 03:08:50;;;;;;;8.67;5.93;;;2.70;99.90;;;;;;4180479;28;20204;-71
2022/04/22 03:10:51;;;;;;;11.00;6.67;;;2.60;99.90;;;;;;4180647;28;20187;-70
2022/04/22 03:12:51;;;;;;;10.73;6.23;;;2.60;99.90;;;;;;4184399;28;20245;-70
2022/04/22 03:14:52;;;;;;;8.67;5.73;;;2.60;99.90;;;;;;4196977;28;20580;-70
2022/04/22 03:16:53;;;;;;;10.17;5.87;;;2.50;99.90;;;;;;4196296;28;20721;-70
2022/04/22 03:18:53;;;;;;;8.30;5.43;;;2.40;99.90;;;;;;4196406;28;20199;-70
2022/04/22 03:20:55;;;;;;;9.90;6.17;;;2.40;99.90;;;;;;4195551;28;20248;-70
2022/04/22 03:22:56;;;;;;;9.87;6.47;;;2.40;99.90;;;;;;4195145;28;20212;-70
2022/04/22 03:24:56;;;;;;;10.20;6.37;;;2.40;99.90;;;;;;4195787;28;20422;-71
2022/04/22 03:26:57;;;;;;;11.50;6.77;;;2.40;99.90;;;;;;4195299;28;20226;-70
2022/04/22 03:28:58;;;;;;;10.33;6.80;;;2.40;99.90;;;;;;4195811;28;20206;-70
2022/04/22 03:30:58;;;;;;;10.57;6.70;;;2.30;99.90;;;;;;4186645;28;20188;-70
2022/04/22 03:32:59;;;;;;;12.67;6.93;;;2.30;99.90;;;;;;4193365;28;20574;-70
2022/04/22 03:35:00;;;;;;;8.23;5.63;;;2.30;99.90;;;;;;4195633;28;20246;-70
2022/04/22 03:37:00;;;;;;;10.73;6.37;;;2.30;99.90;;;;;;4195937;28;20238;-70
2022/04/22 03:39:02;;;;;;;9.87;6.67;;;2.20;99.90;;;;;;4198974;28;20254;-70
2022/04/22 03:41:02;;;;;;;9.73;6.13;;;2.20;99.90;;;;;;4197797;28;20650;-70
2022/04/22 03:43:03;;;;;;;10.80;6.97;;;2.20;99.90;;;;;;4198516;28;20421;-70
2022/04/22 03:45:04;;;;;;;10.47;6.87;;;2.20;99.90;;;;;;4195983;28;20186;-70
2022/04/22 03:47:07;;;;;;;12.50;7.60;;;2.20;99.90;;;;;;4195745;28;20182;-71
2022/04/22 03:49:09;;;;;;;12.53;8.40;;;2.20;99.90;;;;;;4194722;28;20857;-70
2022/04/22 03:51:10;;;;;;;10.00;6.73;;;2.10;99.90;;;;;;4194451;28;20445;-70
2022/04/22 03:53:11;;;;;;;9.37;5.83;;;2.10;99.90;;;;;;4195562;28;20424;-69
2022/04/22 03:55:12;;;;;;;7.93;5.17;;;2.10;99.90;;;;;;4194354;28;20187;-70
2022/04/22 03:59:32;;;;;;;10.53;6.53;;;2.20;99.90;;;;;;4197821;28;20190;-71
2022/04/22 04:01:33;;;;;;;9.27;6.33;;;2.20;99.90;;;;;;4193923;28;20419;-71
2022/04/22 04:03:34;;;;;;;9.63;6.17;;;2.20;99.90;;;;;;4198115;28;20183;-71
2022/04/22 04:05:35;;;;;;;8.93;5.87;;;2.10;99.90;;;;;;4198202;28;20194;-71
2022/04/22 04:07:35;;;;;;;11.10;7.90;;;2.10;99.90;;;;;;4198854;28;20207;-70
2022/04/22 04:16:33;;;;;;;14.70;8.20;;;2.00;99.90;;;;;;4196948;28;20546;-70
2022/04/22 04:18:40;;;;;;;14.53;8.70;;;2.00;99.90;;;;;;4196812;28;20469;-71
2022/04/22 04:23:14;;;;;;;13.97;8.70;;;1.90;99.90;;;;;;4198807;28;20433;-71
2022/04/22 04:25:15;;;;;;;14.70;7.87;;;2.00;99.90;;;;;;4198278;28;20975;-70
2022/04/22 04:27:16;;;;;;;13.57;7.33;;;1.90;99.90;;;;;;4198415;28;20436;-70
2022/04/22 04:29:16;;;;;;;14.00;8.37;;;1.90;99.90;;;;;;4198559;28;20183;-71
2022/04/22 04:31:18;;;;;;;11.83;8.10;;;1.90;99.90;;;;;;4198559;28;20193;-71
2022/04/22 04:33:19;;;;;;;10.87;7.00;;;1.90;99.90;;;;;;4197420;28;20183;-71
2022/04/22 04:35:20;;;;;;;13.43;9.23;;;2.00;99.90;;;;;;4198074;28;20436;-71
2022/04/22 04:37:21;;;;;;;12.83;8.13;;;2.00;99.90;;;;;;4198306;28;20207;-71
2022/04/22 04:39:21;;;;;;;13.83;8.50;;;1.90;99.90;;;;;;4198827;28;20183;-71
2022/04/22 04:41:23;;;;;;;10.20;7.27;;;1.90;99.90;;;;;;4195076;28;20418;-70
2022/04/22 04:43:23;;;;;;;13.07;8.67;;;1.90;99.90;;;;;;4193858;28;20184;-70
2022/04/22 04:45:24;;;;;;;11.03;7.77;;;1.90;99.90;;;;;;4194151;28;20478;-70
2022/04/22 04:47:25;;;;;;;12.43;8.10;;;1.90;99.90;;;;;;4194357;28;20190;-72
2022/04/22 04:49:27;;;;;;;13.00;7.40;;;1.90;99.90;;;;;;4193649;28;20195;-70
2022/04/22 04:51:28;;;;;;;13.93;8.90;;;2.00;99.90;;;;;;4193563;28;20329;-71
2022/04/22 04:53:28;;;;;;;13.57;8.40;;;2.00;99.90;;;;;;4193477;28;20463;-71
2022/04/22 04:55:29;;;;;;;14.27;7.93;;;2.00;99.90;;;;;;4194217;28;20223;-71
2022/04/22 04:57:30;;;;;;;13.60;7.93;;;2.10;99.90;;;;;;4194699;28;20233;-71
2022/04/22 04:59:31;;;;;;;12.27;8.77;;;2.10;99.90;;;;;;4194779;28;20426;-71
2022/04/22 05:01:32;;;;;;;15.37;9.17;;;2.10;99.90;;;;;;4194760;28;20845;-70
2022/04/22 05:03:32;;;;;;;15.40;9.53;;;2.10;99.90;;;;;;4194814;28;20608;-71
2022/04/22 05:05:33;;;;;;;16.30;9.67;;;2.10;99.90;;;;;;4192952;28;20629;-70
2022/04/22 05:07:46;;;;;;;14.07;8.67;;;2.20;99.90;;;;;;4194801;28;20669;-70
2022/04/22 05:09:46;;;;;;;11.03;8.00;;;2.20;99.90;;;;;;4194767;28;20183;-71
2022/04/22 05:11:47;;;;;;;15.43;8.27;;;2.20;99.90;;;;;;4194761;28;20885;-71
2022/04/22 05:13:48;;;;;;;14.20;8.90;;;2.30;99.90;;;;;;4193130;28;20670;-71
2022/04/22 05:15:51;;;;;;;11.87;8.30;;;2.30;99.90;;;;;;4193778;28;20619;-72
2022/04/22 05:17:54;;;;;;;13.50;8.53;;;2.40;99.90;;;;;;4194286;28;20204;-71
2022/04/22 05:19:54;;;;;;;12.37;7.70;;;2.30;99.90;;;;;;4193345;28;20919;-71
2022/04/22 05:21:56;;;;;;;13.47;8.43;;;2.40;99.90;;;;;;4194920;28;20429;-71
2022/04/22 05:23:56;;;;;;;13.53;7.17;;;2.50;99.90;;;;;;4193672;28;20193;-71
2022/04/22 05:25:57;;;;;;;12.23;8.57;;;2.50;99.90;;;;;;4194165;28;20426;-71
2022/04/22 05:27:58;;;;;;;11.67;7.63;;;2.60;99.90;;;;;;4193534;28;20204;-71
2022/04/22 05:32:36;;;;;;;14.60;10.40;;;2.70;99.90;;;;;;4193546;28;20205;-70
2022/04/22 05:34:37;;;;;;;17.07;10.70;;;2.80;99.90;;;;;;4194377;28;20406;-72
2022/04/22 05:36:37;;;;;;;16.27;10.40;;;2.90;99.90;;;;;;4192498;28;21040;-71
2022/04/22 05:38:38;;;;;;;17.70;10.93;;;3.00;99.90;;;;;;4193236;28;20235;-71
2022/04/22 05:40:39;;;;;;;16.33;10.30;;;3.10;99.90;;;;;;4184829;28;20245;-71
2022/04/22 05:42:40;;;;;;;15.97;10.53;;;3.30;99.90;;;;;;4194101;28;20184;-72
2022/04/22 05:44:41;;;;;;;21.50;10.23;;;3.50;99.90;;;;;;4194296;28;20183;-71
2022/04/22 05:46:41;;;;;;;16.53;9.13;;;3.50;99.90;;;;;;4193846;28;20437;-71
2022/04/22 05:48:43;;;;;;;15.80;10.33;;;3.60;99.90;;;;;;4194352;28;20212;-69
2022/04/22 05:50:43;;;;;;;14.30;9.50;;;3.70;99.90;;;;;;4194350;28;20243;-72
2022/04/22 05:52:47;;;;;;;13.53;9.57;;;3.80;99.90;;;;;;4194415;28;20433;-71
2022/04/22 05:54:49;;;;;;;13.83;9.30;;;3.80;99.90;;;;;;4193104;28;20245;-71
2022/04/22 05:56:49;;;;;;;14.07;9.80;;;3.80;99.90;;;;;;4192902;28;20466;-72
2022/04/22 05:58:50;;;;;;;13.70;8.57;;;4.00;99.90;;;;;;4179904;28;20938;-71
2022/04/22 06:00:51;;;;;;;16.00;9.33;;;4.10;99.90;;;;;;4179584;28;20230;-71
2022/04/22 06:02:53;;;;;;;13.77;8.77;;;4.30;99.90;;;;;;4180759;28;20181;-72
2022/04/22 06:04:54;;;;;;;16.87;9.83;;;4.40;99.90;;;;;;4179281;28;20786;-71
2022/04/22 06:06:55;;;;;;;15.10;9.43;;;4.50;99.90;;;;;;4179975;28;20433;-71
2022/04/22 06:11:14;;;;;;;14.00;9.60;;;4.70;99.90;;;;;;4180639;28;20969;-71
2022/04/22 06:13:15;;;;;;;16.87;9.93;;;4.90;99.90;;;;;;4180405;28;20465;-71
2022/04/22 06:15:16;;;;;;;13.27;9.20;;;5.10;99.90;;;;;;4178863;28;20195;-71
2022/04/22 06:17:17;;;;;;;16.77;10.50;;;5.30;99.90;;;;;;4179894;28;20340;-71
2022/04/22 06:19:18;;;;;;;14.13;9.23;;;5.40;99.90;;;;;;4179039;28;20690;-71
2022/04/22 06:21:19;;;;;;;12.30;8.63;;;5.30;99.90;;;;;;4180292;28;20209;-71
2022/04/22 06:23:20;;;;;;;13.43;9.33;;;5.30;99.90;;;;;;4180313;28;20546;-70
2022/04/22 06:25:20;;;;;;;15.77;9.73;;;5.30;99.90;;;;;;4179685;28;20539;-72
2022/04/22 06:27:26;;;;;;;12.47;8.70;;;5.50;99.90;;;;;;4178921;28;20195;-72
2022/04/22 06:29:27;;;;;;;12.07;9.03;;;5.60;99.80;;;;;;4180395;28;20193;-71
2022/04/22 06:31:29;;;;;;;12.80;8.67;;;5.90;99.90;;;;;;4180196;28;20528;-71
2022/04/22 06:33:30;;;;;;;13.77;9.13;;;5.80;98.50;;;;;;4179996;28;20604;-72
2022/04/22 06:35:31;;;;;;;14.33;9.80;;;5.90;99.30;;;;;;4178138;28;20430;-69
2022/04/22 06:37:41;;;;;;;15.37;9.50;;;5.90;98.10;;;;;;4180310;28;20222;-72
2022/04/22 06:46:41;;;;;;;11.87;8.67;;;6.20;98.70;;;;;;4179734;28;20954;-71
2022/04/22 06:48:43;;;;;;;13.80;9.60;;;6.40;96.10;;;;;;4178716;28;20466;-72
2022/04/22 06:50:49;;;;;;;15.57;9.83;;;6.00;97.90;;;;;;4180062;28;20187;-71
2022/04/22 06:52:50;;;;;;;14.20;9.43;;;5.90;98.00;;;;;;4180094;28;20799;-71
2022/04/22 06:54:51;;;;;;;13.03;9.70;;;6.00;98.40;;;;;;4180086;28;20534;-71
2022/04/22 06:56:52;;;;;;;13.17;9.50;;;5.90;98.60;;;;;;4179362;28;20424;-72
2022/04/22 06:58:53;;;;;;;13.47;9.43;;;6.00;97.30;;;;;;4178456;28;20204;-71
2022/04/22 07:00:54;;;;;;;12.13;8.30;;;6.30;97.90;;;;;;4179671;28;20189;-72
2022/04/22 07:02:55;;;;;;;15.93;10.97;;;6.50;96.60;;;;;;4179755;28;20521;-71
2022/04/22 07:04:56;;;;;;;13.93;9.23;;;6.40;96.30;;;;;;4179466;28;20229;-72
2022/04/22 07:06:57;;;;;;;11.63;8.37;;;6.50;97.20;;;;;;4182062;28;20442;-70
2022/04/22 07:08:58;;;;;;;13.30;8.43;;;6.70;96.30;;;;;;4179997;28;20208;-70
2022/04/22 07:11:02;;;;;;;13.80;10.17;;;7.00;95.50;;;;;;4179113;28;20643;-71
2022/04/22 07:13:04;;;;;;;14.50;10.37;;;6.70;95.20;;;;;;4178284;28;20234;-71
2022/04/22 07:15:06;;;;;;;12.70;9.03;;;6.60;95.30;;;;;;4185417;28;20430;-70
2022/04/22 07:17:09;;;;;;;14.43;10.77;;;6.60;95.00;;;;;;4195494;28;20466;-70
2022/04/22 07:19:10;;;;;;;12.57;9.73;;;6.60;95.10;;;;;;4186649;28;20477;-69
2022/04/22 07:21:11;;;;;;;17.13;10.87;;;6.50;95.30;;;;;;4195961;28;21205;-69
2022/04/22 07:23:13;;;;;;;14.30;10.00;;;6.20;95.80;;;;;;4196108;28;20901;-68
2022/04/22 07:25:15;;;;;;;12.90;9.33;;;6.20;97.10;;;;;;4195686;28;20429;-67
2022/04/22 07:27:18;;;;;;;10.67;7.73;;;6.40;97.30;;;;;;4194060;28;20421;-67
2022/04/22 07:29:21;;;;;;;13.70;9.13;;;6.60;96.00;;;;;;4193660;28;20449;-68
2022/04/22 07:31:22;;;;;;;12.77;9.47;;;6.60;95.80;;;;;;4194029;28;20430;-67
2022/04/22 07:33:23;;;;;;;13.43;9.50;;;6.70;95.20;;;;;;4193185;28;20905;-68
2022/04/22 07:35:24;;;;;;;12.03;8.43;;;7.00;95.50;;;;;;4192554;28;20313;-70
2022/04/22 07:37:25;;;;;;;11.80;8.87;;;7.30;94.20;;;;;;4193421;28;20229;-70
2022/04/22 07:39:26;;;;;;;12.60;9.07;;;7.50;93.20;;;;;;4195051;28;20433;-69
2022/04/22 07:41:29;;;;;;;10.47;8.07;;;7.60;92.60;;;;;;4194725;28;20226;-69
2022/04/22 07:48:11;;;;;;;13.60;9.40;;;7.60;92.50;;;;;;4195593;28;20449;-69
2022/04/22 07:50:13;;;;;;;12.03;8.17;;;7.70;92.10;;;;;;4196055;28;20442;-69
2022/04/22 07:52:13;;;;;;;11.13;8.27;;;7.70;91.90;;;;;;4195130;28;20433;-69
2022/04/22 07:54:14;;;;;;;12.53;8.57;;;7.90;91.40;;;;;;4195521;28;20440;-69
2022/04/22 07:56:15;;;;;;;14.97;10.17;;;7.70;92.70;;;;;;4193446;28;20227;-69
2022/04/22 07:58:17;;;;;;;12.20;8.63;;;7.70;92.80;;;;;;4195625;28;20209;-69
2022/04/22 08:00:18;;;;;;;12.43;8.50;;;7.80;92.60;;;;;;4193287;28;20188;-69
2022/04/22 08:02:19;;;;;;;11.57;8.83;;;7.90;92.00;;;;;;4178864;28;20427;-70
2022/04/22 08:04:20;;;;;;;11.87;8.90;;;8.10;91.50;;;;;;4179067;28;20534;-70
2022/04/22 08:06:20;;;;;;;11.77;9.20;;;8.20;91.40;;;;;;4178105;28;20639;-70
2022/04/22 08:08:21;;;;;;;11.30;8.33;;;8.20;91.40;;;;;;4179103;28;20270;-69
2022/04/22 08:10:22;;;;;;;11.77;8.77;;;8.30;90.60;;;;;;4179127;28;20184;-69
2022/04/22 08:12:22;;;;;;;14.20;9.33;;;8.40;89.80;;;;;;4178731;28;20279;-69
2022/04/22 08:14:25;;;;;;;10.63;8.90;;;8.70;88.40;;;;;;4178754;28;20307;-69
2022/04/22 08:16:26;;;;;;;11.23;8.27;;;8.80;86.10;;;;;;4177933;28;20215;-69
2022/04/22 08:18:26;;;;;;;13.43;9.60;;;8.90;86.20;;;;;;4177245;28;20439;-69
2022/04/22 08:20:32;;;;;;;12.30;9.03;;;8.80;87.50;;;;;;4177284;28;20248;-69
2022/04/22 08:22:34;;;;;;;15.80;9.70;;;8.90;89.50;;;;;;4176547;28;20176;-69
2022/04/22 08:24:34;;;;;;;11.63;9.23;;;9.10;85.60;;;;;;4178568;28;20184;-69
2022/04/22 08:26:35;;;;;;;12.47;9.37;;;9.10;86.40;;;;;;4177945;28;20191;-69
2022/04/22 08:28:36;;;;;;;12.10;9.20;;;9.30;88.70;;;;;;4178538;28;20215;-69
2022/04/22 08:30:36;;;;;;;11.13;8.77;;;9.50;83.70;;;;;;4177367;28;20194;-69
2022/04/22 08:32:37;;;;;;;11.47;8.37;;;9.70;81.10;;;;;;4178618;28;20238;-69
2022/04/22 08:34:38;;;;;;;11.67;8.73;;;9.90;79.00;;;;;;4178482;28;20191;-69
2022/04/22 08:36:39;;;;;;;10.70;8.10;;;10.00;79.60;;;;;;4177820;28;20215;-69
2022/04/22 08:38:40;;;;;;;10.43;7.77;;;9.80;78.70;;;;;;4177210;28;20196;-69
2022/04/22 08:40:42;;;;;;;11.57;8.57;;;10.00;77.80;;;;;;4177023;28;20183;-69
2022/04/22 08:42:45;;;;;;;12.93;10.33;;;10.30;77.90;;;;;;4178369;28;20602;-70
2022/04/22 08:44:46;;;;;;;11.60;8.70;;;10.40;77.10;;;;;;4178201;28;20194;-69
2022/04/22 08:51:26;;;;;;;10.17;7.93;;;10.10;77.10;;;;;;4177172;28;20242;-69
2022/04/22 08:53:31;;;;;;;12.23;9.80;;;10.30;76.50;;;;;;4178219;28;20639;-69
2022/04/22 08:55:33;;;;;;;13.03;10.00;;;10.30;80.10;;;;;;4176257;28;20195;-69
2022/04/22 08:57:34;;;;;;;10.90;7.80;;;10.50;77.70;;;;;;4178217;28;20305;-69
2022/04/22 08:59:35;;;;;;;12.23;8.07;;;10.70;73.10;;;;;;4178314;28;20646;-69
2022/04/22 09:01:39;;;;;;;11.97;8.93;;;10.60;72.20;;;;;;4178109;28;20183;-69
2022/04/22 09:03:39;;;;;;;12.10;9.37;;;10.80;72.10;;;;;;4178239;28;20262;-69
2022/04/22 09:05:40;;;;;;;13.63;9.63;;;10.70;75.70;;;;;;4177696;28;20229;-69
2022/04/22 09:07:42;;;;;;;12.13;9.23;;;11.00;73.10;;;;;;4178329;28;20687;-69
2022/04/22 09:09:44;;;;;;;10.73;8.20;;;11.00;73.90;;;;;;4176824;28;20188;-69
2022/04/22 09:11:45;;;;;;;12.10;8.87;;;11.30;70.50;;;;;;4177866;28;20880;-69
2022/04/22 09:13:45;;;;;;;17.60;9.37;;;11.20;70.90;;;;;;4178007;28;20177;-69
2022/04/22 09:15:47;;;;;;;11.63;9.27;;;11.30;69.50;;;;;;4177335;28;20188;-69
2022/04/22 09:17:47;;;;;;;14.10;9.70;;;11.00;73.20;;;;;;4178113;28;20640;-69
2022/04/22 09:19:48;;;;;;;13.27;10.00;;;11.30;70.30;;;;;;4160117;28;20197;-69
2022/04/22 09:22:01;;;;;;;9.77;8.20;;;11.30;74.80;;;;;;4193311;28;20218;-69
2022/04/22 09:24:13;;;;;;;11.43;8.97;;;11.40;68.20;;;;;;4176584;28;20648;-69
2022/04/22 09:26:26;;;;;;;10.87;9.00;;;11.50;67.20;;;;;;4177275;28;20176;-69
2022/04/22 09:28:26;;;;;;;14.93;9.20;;;11.70;66.50;;;;;;4176818;28;20690;-69
2022/04/22 09:30:28;;;;;;;12.03;9.77;;;11.50;66.50;;;;;;4177938;28;20187;-69
2022/04/22 09:32:37;;;;;;;11.43;8.63;;;11.60;70.40;;;;;;4178004;28;20207;-69
2022/04/22 09:34:42;;;;;;;13.77;9.17;;;11.90;69.10;;;;;;4179745;28;20226;-69
2022/04/22 09:43:58;;;;;;;12.07;10.67;;;12.90;63.60;;;;;;4181114;28;20655;-69
2022/04/22 09:45:58;;;;;;;12.57;10.13;;;13.00;62.70;;;;;;4180268;28;20279;-69
2022/04/22 09:47:59;;;;;;;12.30;9.17;;;12.90;65.30;;;;;;4181191;28;20208;-69
2022/04/22 09:50:11;;;;;;;12.30;9.70;;;12.60;63.00;;;;;;4189399;28;20539;-70
2022/04/22 09:52:12;;;;;;;11.50;9.17;;;12.70;62.50;;;;;;4197441;28;20171;-69
2022/04/22 09:54:15;;;;;;;11.70;8.67;;;12.90;64.80;;;;;;4196106;28;20245;-69
2022/04/22 09:56:16;;;;;;;12.87;10.17;;;13.30;60.40;;;;;;4196389;28;20184;-70
2022/04/22 09:58:26;;;;;;;10.83;8.43;;;13.20;66.60;;;;;;4197320;28;20300;-69
2022/04/22 10:00:33;;;;;;;10.47;8.63;;;13.80;63.50;;;;;;4195776;28;20190;-70
2022/04/22 10:02:34;;;;;;;13.33;9.40;;;14.10;59.10;;;;;;4197486;28;20163;-69
2022/04/22 10:04:36;;;;;;;11.10;9.00;;;14.30;57.10;;;;;;4198636;28;20186;-67
2022/04/22 10:06:38;;;;;;;13.33;10.90;;;14.60;57.00;;;;;;4199719;28;20232;-67
2022/04/22 10:08:40;;;;;;;12.23;10.00;;;14.60;56.60;;;;;;4199803;28;20208;-67
2022/04/22 10:10:42;;;;;;;11.33;9.97;;;14.50;57.60;;;;;;4196350;28;20190;-67
2022/04/22 10:12:43;;;;;;;12.37;9.53;;;14.70;56.30;;;;;;4199609;28;20192;-68
2022/04/22 10:14:45;;;;;;;11.50;9.07;;;15.00;54.20;;;;;;4200401;28;20194;-68
2022/04/22 10:16:46;;;;;;;10.50;9.07;;;15.40;55.50;;;;;;4199997;28;20236;-68
2022/04/22 10:18:47;;;;;;;11.00;9.83;;;15.80;53.00;;;;;;4200117;28;20200;-68
2022/04/22 10:20:48;;;;;;;12.33;9.30;;;15.60;50.60;;;;;;4200707;28;20171;-68
2022/04/22 10:22:50;;;;;;;10.90;9.67;;;15.80;52.20;;;;;;4200553;28;20180;-68
2022/04/22 10:24:51;;;;;;;10.87;9.40;;;15.50;49.20;;;;;;4200625;28;20176;-68
2022/04/22 10:26:52;;;;;;;10.67;9.60;;;15.70;52.00;;;;;;4197759;28;20205;-68
2022/04/22 10:28:54;;;;;;;11.57;9.13;;;16.70;47.80;;;;;;4195573;28;20337;-68
2022/04/22 10:31:00;;;;;;;11.13;9.53;;;16.90;47.70;;;;;;4195560;28;20171;-68
2022/04/22 10:33:02;;;;;;;12.67;11.30;;;17.50;46.70;;;;;;4195657;28;20155;-68
2022/04/22 10:35:04;;;;;;;11.03;9.87;;;17.80;45.90;;;;;;4196300;28;20187;-68
2022/04/22 10:37:23;;;;;;;12.43;9.73;;;17.80;45.10;;;;;;4194962;28;20199;-68
2022/04/22 10:39:34;;;;;;;14.77;10.03;;;17.40;45.50;;;;;;4196796;28;20178;-68
2022/04/22 10:41:46;;;;;;;12.47;11.27;;;18.60;42.10;;;;;;4196823;28;20180;-68
2022/04/22 10:48:32;;;;;;;10.67;9.57;;;18.30;43.70;;;;;;4196850;28;20233;-68
2022/04/22 10:50:42;;;;;;;12.43;9.97;;;18.50;44.30;;;;;;4195191;28;20176;-68
2022/04/22 10:53:02;;;;;;;11.00;9.53;;;19.70;40.80;;;;;;4196599;28;20168;-68
2022/04/22 10:55:07;;;;;;;11.00;9.67;;;19.40;40.80;;;;;;4195045;28;20195;-68
2022/04/22 10:57:16;;;;;;;12.30;10.30;;;19.50;41.20;;;;;;4196141;28;20243;-69
2022/04/22 10:59:18;;;;;;;12.63;11.33;;;19.50;40.20;;;;;;4178906;28;20184;-68
2022/04/22 11:01:31;;;;;;;12.00;9.93;;;18.30;43.00;;;;;;4196249;28;20172;-68
2022/04/22 11:03:36;;;;;;;10.63;9.53;;;17.90;44.30;;;;;;4196386;28;20187;-68
2022/04/22 11:05:38;;;;;;;10.17;9.03;;;17.30;45.20;;;;;;4195854;28;20163;-68
2022/04/22 11:07:55;;;;;;;12.17;10.50;;;18.70;43.60;;;;;;4195042;28;20574;-68
2022/04/22 11:10:02;;;;;;;10.67;9.67;;;19.70;42.50;;;;;;4196543;28;20784;-68
2022/04/22 11:12:03;;;;;;;10.40;9.33;;;19.80;40.90;;;;;;4194922;28;20258;-69
2022/04/22 11:14:25;;;;;;;10.07;9.10;;;20.30;38.70;;;;;;4196038;28;20172;-68
2022/04/22 11:16:29;;;;;;;12.17;10.43;;;21.20;36.20;;;;;;4195504;28;20211;-68
2022/04/22 11:18:31;;;;;;;9.37;8.47;;;20.60;40.00;;;;;;4194658;28;20203;-68
2022/04/22 11:20:35;;;;;;;11.60;9.90;;;20.60;39.80;;;;;;4194893;28;20188;-68
2022/04/22 11:22:58;;;;;;;14.20;9.53;;;20.40;40.10;;;;;;4195772;28;20911;-68
2022/04/22 11:24:59;;;;;;;12.63;11.17;;;21.50;36.80;;;;;;4195881;28;20199;-68
2022/04/22 11:27:11;;;;;;;13.43;9.27;;;21.20;37.30;;;;;;4195572;28;20180;-68
2022/04/22 11:29:14;;;;;;;11.07;9.40;;;22.50;35.60;;;;;;4195912;28;20171;-69
2022/04/22 11:31:14;;;;;;;11.43;10.33;;;22.40;34.90;;;;;;4194426;28;20172;-68
2022/04/22 11:33:23;;;;;;;9.97;8.97;;;22.80;33.80;;;;;;4195595;28;20176;-68